Time;durP1;ratioP1;P1;durP2;ratioP2;P2;SDS_P1;SDS_P2;PMS_P1;PMS_P2;Temp;Humidity;BMP_temperature;BMP_pressure;BME280_temperature;BME280_humidity;BME280_pressure;Samples;Min_cycle;Max_cycle;Signal;HPM_P1;HPM_P2
2022/08/29 00:00:13;;;;;;;9.93;9.03;;;;;;;16.25;100.00;97255.84;4992081;28;20511;-59
2022/08/29 00:02:46;;;;;;;13.10;10.60;;;;;;;16.32;100.00;97270.78;4960713;28;20223;-57
2022/08/29 00:05:18;;;;;;;11.73;10.63;;;;;;;16.25;100.00;97267.34;4992923;28;20205;-59
2022/08/29 00:07:52;;;;;;;10.70;9.70;;;;;;;16.20;100.00;97276.03;4990732;28;20232;-56
2022/08/29 00:10:25;;;;;;;11.50;10.50;;;;;;;16.15;100.00;97278.53;4965313;28;20324;-59
2022/08/29 00:12:56;;;;;;;11.53;10.63;;;;;;;16.10;100.00;97272.19;4992930;28;20257;-59
2022/08/29 00:15:25;;;;;;;12.77;11.33;;;;;;;16.03;100.00;97274.91;4451763;28;20237;-58
2022/08/29 00:17:53;;;;;;;11.13;10.10;;;;;;;15.97;100.00;97276.63;4957161;28;20252;-58
2022/08/29 00:20:25;;;;;;;12.17;11.03;;;;;;;15.87;100.00;97273.56;4961517;28;20932;-60
2022/08/29 00:23:01;;;;;;;11.60;10.60;;;;;;;15.84;100.00;97272.16;4995039;28;20304;-58
2022/08/29 00:25:30;;;;;;;12.33;10.47;;;;;;;15.76;100.00;97269.75;4952751;28;21543;-58
2022/08/29 00:28:00;;;;;;;12.33;11.07;;;;;;;15.69;100.00;97275.13;4992873;28;20581;-55
2022/08/29 00:30:28;;;;;;;12.53;11.50;;;;;;;15.62;100.00;97275.13;4991897;28;20279;-53
2022/08/29 00:32:56;;;;;;;12.53;11.23;;;;;;;15.54;100.00;97275.41;4958135;28;20221;-57
2022/08/29 00:35:27;;;;;;;12.07;11.00;;;;;;;15.52;100.00;97273.97;4969103;28;20922;-58
2022/08/29 00:37:58;;;;;;;11.33;10.30;;;;;;;15.43;100.00;97268.88;4991620;28;20756;-51
2022/08/29 00:40:32;;;;;;;12.33;10.30;;;;;;;15.37;100.00;97271.59;4958289;28;20250;-55
2022/08/29 00:43:02;;;;;;;12.47;11.23;;;;;;;15.28;100.00;97266.47;4991583;28;20208;-53
2022/08/29 00:45:31;;;;;;;12.47;11.47;;;;;;;15.21;100.00;97268.34;4985100;28;20208;-53
2022/08/29 00:48:02;;;;;;;11.73;10.60;;;;;;;15.15;100.00;97263.88;4956729;28;20222;-57
2022/08/29 00:50:33;;;;;;;11.63;10.70;;;;;;;15.07;100.00;97266.78;4967164;28;20452;-54
2022/08/29 00:53:03;;;;;;;14.07;11.90;;;;;;;14.98;100.00;97263.50;4992495;28;22379;-56
2022/08/29 00:55:34;;;;;;;12.27;11.27;;;;;;;14.96;100.00;97268.25;4951337;28;21425;-52
2022/08/29 00:58:06;;;;;;;12.83;11.67;;;;;;;14.90;100.00;97277.91;4994556;28;20205;-54
2022/08/29 01:00:35;;;;;;;13.20;11.93;;;;;;;14.88;100.00;97277.28;4990281;28;20350;-55
2022/08/29 01:03:04;;;;;;;12.70;11.50;;;;;;;14.84;100.00;97276.91;4954449;28;20205;-53
2022/08/29 01:05:32;;;;;;;11.80;10.90;;;;;;;14.88;100.00;97283.47;4967803;28;20197;-57
2022/08/29 01:08:01;;;;;;;12.87;11.83;;;;;;;14.75;100.00;97289.63;4992617;28;20233;-53
2022/08/29 01:13:16;;;;;;;12.13;11.00;;;;;;;14.62;100.00;97295.78;4953686;28;20209;-56
2022/08/29 01:15:45;;;;;;;12.50;11.27;;;;;;;14.54;100.00;97296.00;4990619;28;20286;-56
2022/08/29 01:18:15;;;;;;;13.90;12.60;;;;;;;14.47;100.00;97272.00;4987101;28;20662;-57
2022/08/29 01:20:50;;;;;;;14.50;12.63;;;;;;;14.55;100.00;97292.31;4951198;28;20903;-55
2022/08/29 01:23:21;;;;;;;14.43;12.93;;;;;;;14.47;100.00;97290.66;4990520;28;20205;-57
2022/08/29 01:25:52;;;;;;;13.83;12.70;;;;;;;14.48;100.00;97297.63;4994563;28;20220;-56
2022/08/29 01:28:22;;;;;;;14.30;12.90;;;;;;;14.42;100.00;97301.13;4950850;28;20224;-58
2022/08/29 01:30:59;;;;;;;15.73;13.67;;;;;;;14.39;100.00;97292.72;4993257;28;22466;-54
2022/08/29 01:33:37;;;;;;;14.63;13.33;;;;;;;14.32;100.00;97292.72;4990190;28;20291;-56
2022/08/29 01:36:06;;;;;;;13.57;12.27;;;;;;;14.28;100.00;97299.50;4937724;28;20208;-57
2022/08/29 01:38:34;;;;;;;14.07;12.63;;;;;;;14.21;100.00;97291.50;4990771;28;20402;-55
2022/08/29 01:41:04;;;;;;;14.93;13.80;;;;;;;14.17;100.00;97296.41;4989423;28;20255;-57
2022/08/29 01:43:38;;;;;;;13.70;12.60;;;;;;;14.15;100.00;97298.44;4952621;28;20308;-53
2022/08/29 01:46:07;;;;;;;13.43;12.33;;;;;;;14.14;100.00;97294.13;4993095;28;20232;-52
2022/08/29 01:48:37;;;;;;;14.67;13.07;;;;;;;14.13;100.00;97295.16;4929339;28;20229;-58
2022/08/29 01:51:06;;;;;;;14.33;13.17;;;;;;;14.07;100.00;97281.84;4994382;28;20278;-56
2022/08/29 01:53:34;;;;;;;14.30;13.00;;;;;;;13.96;100.00;97281.41;4978264;28;20248;-53
2022/08/29 01:56:11;;;;;;;13.50;12.40;;;;;;;14.00;100.00;97293.31;4986978;28;20205;-53
2022/08/29 01:58:40;;;;;;;13.57;12.57;;;;;;;13.94;100.00;97291.47;4989911;28;20592;-58
2022/08/29 02:01:09;;;;;;;13.40;12.20;;;;;;;13.97;100.00;97284.91;4981501;28;20212;-51
2022/08/29 02:03:37;;;;;;;13.13;12.10;;;;;;;13.91;100.00;97285.72;4942838;28;20302;-55
2022/08/29 02:06:08;;;;;;;15.30;13.03;;;;;;;13.98;100.00;97291.88;4970735;28;20214;-52
2022/08/29 02:08:37;;;;;;;14.47;13.30;;;;;;;13.97;100.00;97295.56;4989302;28;20267;-52
2022/08/29 02:11:08;;;;;;;14.57;13.37;;;;;;;13.89;100.00;97291.25;4967277;28;20214;-56
2022/08/29 02:13:39;;;;;;;13.57;12.33;;;;;;;13.85;100.00;97290.00;4992933;28;20209;-54
2022/08/29 02:16:07;;;;;;;13.50;12.40;;;;;;;13.88;100.00;97285.13;4989938;28;20720;-56
2022/08/29 02:18:36;;;;;;;15.53;14.23;;;;;;;13.87;100.00;97285.31;4942907;28;21715;-52
2022/08/29 02:21:04;;;;;;;14.27;13.00;;;;;;;13.85;100.00;97288.19;4991005;28;20927;-55
2022/08/29 02:23:34;;;;;;;14.93;13.63;;;;;;;13.76;100.00;97281.38;4987649;28;20213;-55
2022/08/29 02:26:03;;;;;;;14.23;13.03;;;;;;;13.80;100.00;97282.63;4965751;28;20266;-58
2022/08/29 02:28:32;;;;;;;14.83;13.63;;;;;;;13.82;100.00;97285.91;4990371;28;20197;-55
2022/08/29 02:31:02;;;;;;;15.47;14.03;;;;;;;13.88;100.00;97287.78;4996299;28;20222;-56
2022/08/29 02:33:31;;;;;;;15.47;14.03;;;;;;;13.84;100.00;97283.88;4992067;28;20209;-55
2022/08/29 02:36:14;;;;;;;15.93;14.40;;;;;;;13.82;100.00;97272.59;4948997;28;20715;-58
2022/08/29 02:38:46;;;;;;;18.70;14.17;;;;;;;13.86;100.00;97279.19;4993812;28;20311;-56
2022/08/29 02:41:14;;;;;;;16.27;13.83;;;;;;;13.80;100.00;97284.47;4971854;28;20213;-55
2022/08/29 02:43:43;;;;;;;15.50;14.07;;;;;;;13.81;100.00;97276.28;4991559;28;20335;-51
2022/08/29 02:46:17;;;;;;;15.40;14.00;;;;;;;13.70;100.00;97277.72;4988568;28;20201;-57
2022/08/29 02:48:46;;;;;;;17.23;15.00;;;;;;;13.62;100.00;97277.88;4995998;28;20229;-56
2022/08/29 02:51:29;;;;;;;14.57;13.07;;;;;;;13.60;100.00;97279.91;4943097;28;20205;-54
2022/08/29 02:53:58;;;;;;;15.67;14.27;;;;;;;13.65;100.00;97288.16;4988477;28;20256;-52
2022/08/29 02:56:27;;;;;;;19.03;17.30;;;;;;;13.59;100.00;97289.75;4963357;28;20595;-56
2022/08/29 02:58:55;;;;;;;16.43;15.03;;;;;;;13.57;100.00;97294.47;4998309;28;20213;-58
2022/08/29 03:01:26;;;;;;;15.97;14.47;;;;;;;13.48;100.00;97297.50;4992312;28;20208;-56
2022/08/29 03:03:55;;;;;;;16.20;14.70;;;;;;;13.34;100.00;97302.75;4994167;28;20296;-55
2022/08/29 03:06:23;;;;;;;16.53;14.83;;;;;;;13.39;100.00;97299.47;4951951;28;20484;-55
2022/08/29 03:08:52;;;;;;;16.00;14.33;;;;;;;13.31;100.00;97301.28;4995723;28;20210;-53
2022/08/29 03:11:21;;;;;;;16.00;14.67;;;;;;;13.27;100.00;97302.72;4994752;28;20277;-54
2022/08/29 03:13:49;;;;;;;17.03;15.30;;;;;;;13.21;100.00;97298.19;4974919;28;20260;-57
2022/08/29 03:16:18;;;;;;;18.17;16.33;;;;;;;13.21;100.00;97300.03;4995441;28;20258;-55
2022/08/29 03:18:47;;;;;;;16.67;15.20;;;;;;;13.17;100.00;97303.06;4995400;28;20795;-57
2022/08/29 03:21:18;;;;;;;15.97;14.67;;;;;;;13.15;100.00;97296.34;4949672;28;20217;-56
2022/08/29 03:23:47;;;;;;;16.63;15.23;;;;;;;13.12;100.00;97297.53;4996328;28;20193;-53
2022/08/29 03:26:15;;;;;;;17.77;16.07;;;;;;;13.07;100.00;97296.47;4996821;28;20239;-55
2022/08/29 03:28:43;;;;;;;18.10;16.50;;;;;;;13.07;100.00;97299.13;4976706;28;20260;-51
2022/08/29 03:31:12;;;;;;;16.03;14.53;;;;;;;13.02;100.00;97302.41;4994919;28;20621;-55
2022/08/29 03:33:40;;;;;;;17.17;15.33;;;;;;;13.00;100.00;97315.06;4995062;28;21130;-49
2022/08/29 03:36:11;;;;;;;17.40;15.80;;;;;;;12.95;100.00;97306.88;4976385;28;20276;-54
2022/08/29 03:38:42;;;;;;;16.20;14.90;;;;;;;13.00;100.00;97304.44;4946744;28;20233;-55
2022/08/29 03:41:11;;;;;;;17.17;15.53;;;;;;;12.92;100.00;97310.72;4986749;28;20589;-56
2022/08/29 03:43:39;;;;;;;16.83;15.23;;;;;;;12.87;100.00;97298.00;4990063;28;20243;-54
2022/08/29 03:46:07;;;;;;;19.93;15.83;;;;;;;12.81;100.00;97314.75;4973300;28;20198;-56
2022/08/29 03:48:35;;;;;;;16.23;14.93;;;;;;;12.90;100.00;97309.28;4987896;28;20300;-54
2022/08/29 03:51:04;;;;;;;18.37;16.57;;;;;;;12.82;100.00;97312.94;4984983;28;20197;-56
2022/08/29 03:53:33;;;;;;;17.57;15.87;;;;;;;12.74;100.00;97312.06;4943464;28;20217;-58
2022/08/29 03:56:03;;;;;;;18.13;16.30;;;;;;;12.76;100.00;97316.38;4922461;28;20710;-55
2022/08/29 03:58:32;;;;;;;16.77;14.90;;;;;;;12.78;100.00;97317.00;4993103;28;20225;-54
2022/08/29 04:01:01;;;;;;;17.47;15.37;;;;;;;12.74;100.00;97321.88;4973617;28;20237;-57
2022/08/29 04:03:29;;;;;;;16.63;15.20;;;;;;;12.74;100.00;97325.34;4982253;28;20197;-55
2022/08/29 04:05:58;;;;;;;17.07;15.57;;;;;;;12.70;100.00;97326.75;4983342;28;20216;-57
2022/08/29 04:08:27;;;;;;;19.10;17.37;;;;;;;12.66;100.00;97328.13;4973299;28;20211;-54
2022/08/29 04:10:56;;;;;;;18.37;16.67;;;;;;;12.64;100.00;97326.72;4942640;28;20259;-54
2022/08/29 04:13:24;;;;;;;17.83;16.33;;;;;;;12.64;100.00;97329.38;4990779;28;20818;-54
2022/08/29 04:15:53;;;;;;;17.90;16.20;;;;;;;12.65;100.00;97342.44;4954086;28;21051;-52
2022/08/29 04:18:21;;;;;;;16.97;15.50;;;;;;;12.66;100.00;97338.78;4972605;28;20316;-54
2022/08/29 04:20:50;;;;;;;17.20;15.70;;;;;;;12.61;100.00;97345.72;4982946;28;20291;-56
2022/08/29 04:23:18;;;;;;;18.00;16.37;;;;;;;12.54;100.00;97341.16;4969769;28;20672;-54
2022/08/29 04:25:46;;;;;;;18.77;17.07;;;;;;;12.57;100.00;97342.59;4941060;28;20294;-56
2022/08/29 04:28:16;;;;;;;17.53;16.00;;;;;;;12.56;100.00;97336.47;4965549;28;20815;-55
2022/08/29 04:30:47;;;;;;;18.53;16.40;;;;;;;12.55;100.00;97337.50;4989062;28;20325;-56
2022/08/29 04:33:18;;;;;;;17.97;16.17;;;;;;;12.57;100.00;97339.94;4973745;28;20216;-52
2022/08/29 04:35:50;;;;;;;18.53;16.60;;;;;;;12.55;100.00;97348.13;4983630;28;20205;-56
2022/08/29 04:38:18;;;;;;;17.87;16.40;;;;;;;12.56;100.00;97343.63;4968750;28;20205;-57
2022/08/29 04:40:46;;;;;;;17.80;16.27;;;;;;;12.61;100.00;97345.72;4919211;28;20342;-56
2022/08/29 04:43:16;;;;;;;19.03;17.30;;;;;;;12.57;100.00;97356.72;4983952;28;20220;-54
2022/08/29 04:45:44;;;;;;;18.57;16.97;;;;;;;12.58;100.00;97349.56;4985943;28;20219;-58
2022/08/29 04:48:12;;;;;;;17.27;15.67;;;;;;;12.56;100.00;97348.94;4983194;28;20213;-58
2022/08/29 04:50:40;;;;;;;17.00;15.50;;;;;;;12.58;100.00;97347.72;4973245;28;20724;-58
2022/08/29 04:53:09;;;;;;;19.33;17.27;;;;;;;12.62;100.00;97350.00;4984418;28;20213;-58
2022/08/29 04:55:37;;;;;;;18.83;17.13;;;;;;;12.75;100.00;97347.44;4922997;28;20217;-56
2022/08/29 04:58:07;;;;;;;22.83;18.10;;;;;;;12.76;100.00;97351.72;4985723;28;20908;-51
2022/08/29 05:00:38;;;;;;;20.30;18.20;;;;;;;12.76;100.00;97353.59;4987536;28;20324;-57
2022/08/29 05:03:07;;;;;;;19.63;17.83;;;;;;;12.87;100.00;97355.69;4983594;28;20201;-58
2022/08/29 05:05:35;;;;;;;21.60;19.40;;;;;;;12.92;100.00;97352.47;4965124;28;20209;-52
2022/08/29 05:08:04;;;;;;;18.53;16.83;;;;;;;12.92;100.00;97353.28;4983944;28;20213;-55
2022/08/29 05:10:32;;;;;;;17.20;15.77;;;;;;;13.01;100.00;97356.63;4965476;28;20237;-57
2022/08/29 05:13:01;;;;;;;17.03;15.43;;;;;;;13.03;100.00;97358.03;4959984;28;20932;-53
2022/08/29 05:15:30;;;;;;;18.83;17.07;;;;;;;13.12;100.00;97358.72;4989300;28;20299;-54
2022/08/29 05:18:00;;;;;;;17.67;16.00;;;;;;;13.21;100.00;97361.22;4981439;28;20203;-53
2022/08/29 05:20:28;;;;;;;18.70;16.70;;;;;;;13.26;100.00;97370.25;4969601;28;20233;-50
2022/08/29 05:22:56;;;;;;;17.80;16.03;;;;;;;13.30;100.00;97368.03;4985430;28;20201;-53
2022/08/29 05:25:24;;;;;;;17.50;15.97;;;;;;;13.40;100.00;97365.81;4967454;28;20267;-56
2022/08/29 05:27:53;;;;;;;17.53;15.90;;;;;;;13.49;100.00;97361.19;4939803;28;20310;-55
2022/08/29 05:30:21;;;;;;;17.17;15.53;;;;;;;13.59;100.00;97358.97;4985882;28;20313;-58
2022/08/29 05:33:03;;;;;;;17.03;15.30;;;;;;;13.74;100.00;97364.16;4982703;28;20202;-54
2022/08/29 05:35:31;;;;;;;16.30;14.90;;;;;;;13.86;100.00;97360.91;4976497;28;20288;-54
2022/08/29 05:38:00;;;;;;;16.53;15.07;;;;;;;13.94;100.00;97359.91;4982497;28;20259;-52
2022/08/29 05:40:34;;;;;;;16.57;14.97;;;;;;;14.07;100.00;97361.78;4985150;28;20233;-56
2022/08/29 05:43:03;;;;;;;16.00;14.60;;;;;;;14.07;100.00;97353.78;4929309;28;20217;-56
2022/08/29 05:45:32;;;;;;;15.10;13.70;;;;;;;14.26;100.00;97362.84;4988464;28;20201;-56
2022/08/29 05:48:06;;;;;;;15.67;14.27;;;;;;;14.33;100.00;97363.66;4985192;28;20214;-56
2022/08/29 05:50:38;;;;;;;16.67;15.17;;;;;;;14.36;100.00;97362.41;4985934;28;20256;-55
2022/08/29 05:53:06;;;;;;;16.47;14.30;;;;;;;14.36;100.00;97368.59;4977636;28;20193;-55
2022/08/29 05:55:38;;;;;;;14.40;13.10;;;;;;;14.48;100.00;97366.94;4982139;28;20216;-55
2022/08/29 05:58:07;;;;;;;15.77;14.43;;;;;;;14.58;100.00;97366.53;4923683;28;21413;-57
2022/08/29 06:00:38;;;;;;;15.20;13.70;;;;;;;14.69;100.00;97366.94;4963939;28;20264;-59
2022/08/29 06:03:09;;;;;;;15.60;13.87;;;;;;;14.88;100.00;97362.66;4932414;28;20424;-56
2022/08/29 06:05:37;;;;;;;15.10;13.67;;;;;;;15.11;100.00;97362.19;4991028;28;20204;-54
2022/08/29 06:08:06;;;;;;;14.17;12.73;;;;;;;15.04;100.00;97370.22;4987913;28;20212;-58
2022/08/29 06:10:34;;;;;;;14.17;12.80;;;;;;;15.19;100.00;97366.50;4969889;28;20236;-51
2022/08/29 06:13:03;;;;;;;13.33;11.57;;;;;;;15.32;100.00;97370.97;4988586;28;20748;-57
2022/08/29 06:15:32;;;;;;;13.57;12.23;;;;;;;15.43;100.00;97364.97;4986576;28;20239;-56
2022/08/29 06:18:00;;;;;;;12.50;11.37;;;;;;;15.47;100.00;97368.06;4947134;28;20228;-56
2022/08/29 06:20:29;;;;;;;13.20;12.20;;;;;;;15.47;100.00;97366.19;4992160;28;20232;-56
2022/08/29 06:22:58;;;;;;;13.13;11.93;;;;;;;15.54;100.00;97355.50;4987338;28;20219;-56
2022/08/29 06:25:26;;;;;;;12.07;11.17;;;;;;;15.82;100.00;97366.88;4989756;28;20251;-56
2022/08/29 06:28:07;;;;;;;12.93;11.60;;;;;;;16.86;100.00;97369.28;4984212;28;20206;-54
2022/08/29 06:30:35;;;;;;;12.10;10.77;;;;;;;17.03;100.00;97366.88;4988480;28;20243;-55
2022/08/29 06:33:03;;;;;;;11.17;10.13;;;;;;;16.71;100.00;97366.94;4942924;28;20228;-57
2022/08/29 06:35:33;;;;;;;10.70;9.80;;;;;;;16.61;100.00;97367.44;4988124;28;20210;-53
2022/08/29 06:38:01;;;;;;;11.53;10.47;;;;;;;16.66;100.00;97369.47;4986348;28;20212;-56
2022/08/29 06:40:29;;;;;;;10.67;9.67;;;;;;;16.72;100.00;97365.91;4984108;28;22119;-55
2022/08/29 06:42:59;;;;;;;11.00;10.00;;;;;;;16.71;100.00;97369.63;4986340;28;20228;-54
2022/08/29 06:45:40;;;;;;;11.23;10.20;;;;;;;16.86;100.00;97373.84;4983483;28;20212;-55
2022/08/29 06:48:08;;;;;;;11.40;10.40;;;;;;;16.79;100.00;97371.22;4936252;28;20213;-53
2022/08/29 06:50:42;;;;;;;11.80;10.60;;;;;;;16.90;100.00;97367.81;4988123;28;20698;-56
2022/08/29 06:53:13;;;;;;;12.23;10.70;;;;;;;16.87;100.00;97368.25;4988192;28;20810;-55
2022/08/29 06:56:04;;;;;;;11.77;10.17;;;;;;;17.07;100.00;97361.94;4986237;28;20220;-55
2022/08/29 06:58:39;;;;;;;11.30;10.30;;;;;;;17.25;100.00;97354.94;4985755;28;20205;-56
2022/08/29 07:01:09;;;;;;;10.83;9.83;;;;;;;17.69;100.00;97366.38;4980866;28;20240;-57
2022/08/29 07:03:39;;;;;;;10.37;9.53;;;;;;;17.49;100.00;97370.13;4943139;28;20216;-52
2022/08/29 07:06:10;;;;;;;10.47;9.47;;;;;;;17.53;100.00;97365.13;4983508;28;20263;-55
2022/08/29 07:08:38;;;;;;;11.63;10.67;;;;;;;17.88;100.00;97377.06;4982958;28;20213;-52
2022/08/29 07:11:23;;;;;;;10.70;9.60;;;;;;;18.05;100.00;97371.94;4985264;28;20215;-53
2022/08/29 07:13:51;;;;;;;10.73;9.70;;;;;;;18.28;100.00;97362.31;4984887;28;20815;-57
2022/08/29 07:16:19;;;;;;;10.17;9.17;;;;;;;18.13;100.00;97365.41;4982970;28;20241;-54
2022/08/29 07:18:49;;;;;;;11.47;10.43;;;;;;;18.55;100.00;97373.44;4944489;28;20287;-57
2022/08/29 07:21:22;;;;;;;10.93;9.93;;;;;;;18.54;100.00;97369.13;4987658;28;20284;-53
2022/08/29 07:23:50;;;;;;;10.67;9.77;;;;;;;18.58;100.00;97377.53;4985707;28;20817;-55
2022/08/29 07:26:21;;;;;;;10.00;9.10;;;;;;;18.98;100.00;97376.09;4984096;28;20210;-59
2022/08/29 07:28:50;;;;;;;9.63;8.93;;;;;;;19.00;100.00;97369.44;4988823;28;21657;-53
2022/08/29 07:31:20;;;;;;;10.77;9.67;;;;;;;19.17;100.00;97361.47;4981979;28;20193;-56
2022/08/29 07:33:49;;;;;;;10.03;9.03;;;;;;;19.05;100.00;97364.16;4946496;28;20213;-56
2022/08/29 07:36:30;;;;;;;10.83;9.73;;;;;;;19.36;100.00;97364.84;4984291;28;20287;-57
2022/08/29 07:39:01;;;;;;;11.27;10.17;;;;;;;19.33;100.00;97362.63;4984798;28;20277;-57
2022/08/29 07:41:30;;;;;;;9.97;8.97;;;;;;;19.54;100.00;97371.13;4986235;28;22884;-56
2022/08/29 07:43:58;;;;;;;11.17;9.93;;;;;;;19.78;100.00;97371.03;4984432;28;20684;-55
2022/08/29 07:46:27;;;;;;;9.80;8.90;;;;;;;19.59;100.00;97373.09;4985872;28;20330;-54
2022/08/29 07:48:55;;;;;;;10.33;9.13;;;;;;;19.85;100.00;97373.59;4970746;28;20307;-57
2022/08/29 07:51:24;;;;;;;10.77;9.67;;;;;;;19.95;100.00;97377.34;4963587;28;20205;-58
2022/08/29 07:53:54;;;;;;;11.47;10.47;;;;;;;20.23;100.00;97366.81;4991213;28;20201;-56
2022/08/29 07:56:24;;;;;;;11.00;9.93;;;;;;;20.27;100.00;97370.63;4983931;28;20454;-56
2022/08/29 07:58:53;;;;;;;10.00;9.07;;;;;;;20.22;100.00;97365.97;4987650;28;20208;-57
2022/08/29 08:01:22;;;;;;;9.90;9.00;;;;;;;20.03;100.00;97373.44;4986193;28;20308;-54
2022/08/29 08:03:52;;;;;;;10.03;9.13;;;;;;;20.35;100.00;97364.84;4984974;28;20296;-58
2022/08/29 08:06:22;;;;;;;12.07;10.97;;;;;;;20.35;100.00;97374.81;4962046;28;20216;-54
2022/08/29 08:08:55;;;;;;;9.73;8.83;;;;;;;20.54;100.00;97375.41;4933600;28;20225;-54
2022/08/29 08:11:25;;;;;;;9.93;8.97;;;;;;;20.58;100.00;97370.31;4968999;28;20919;-57
2022/08/29 08:13:53;;;;;;;9.50;8.80;;;;;;;20.81;100.00;97364.81;4989167;28;20876;-58
2022/08/29 08:16:23;;;;;;;9.67;8.80;;;;;;;21.07;100.00;97375.16;4968417;28;20237;-58
2022/08/29 08:18:52;;;;;;;10.57;9.10;;;;;;;20.86;100.00;97377.56;4987093;28;20200;-51
2022/08/29 08:21:21;;;;;;;8.77;8.20;;;;;;;21.06;100.00;97379.75;4984770;28;20900;-59
2022/08/29 08:23:49;;;;;;;10.70;8.47;;;;;;;20.98;100.00;97380.13;4943729;28;20729;-54
2022/08/29 08:26:19;;;;;;;9.47;8.67;;;;;;;21.26;100.00;97383.78;4985773;28;20685;-55
2022/08/29 08:28:48;;;;;;;9.17;8.37;;;;;;;21.21;100.00;97387.22;4983140;28;20205;-54
2022/08/29 08:31:17;;;;;;;9.33;8.57;;;;;;;21.42;100.00;97390.19;4968544;28;20213;-56
2022/08/29 08:33:46;;;;;;;10.10;9.10;;;;;;;21.29;100.00;97391.34;4982753;28;20196;-57
2022/08/29 08:36:16;;;;;;;10.47;9.43;;;;;;;21.31;100.00;97393.81;4987773;28;20205;-55
2022/08/29 08:38:45;;;;;;;10.43;9.20;;;;;;;21.24;100.00;97393.97;4980964;28;20229;-54
2022/08/29 08:41:22;;;;;;;10.63;9.83;;;;;;;21.50;100.00;97399.72;4944981;28;20282;-59
2022/08/29 08:43:57;;;;;;;9.43;8.57;;;;;;;21.57;100.00;97397.66;4990570;28;20212;-54
2022/08/29 08:46:29;;;;;;;9.33;8.53;;;;;;;21.80;100.00;97402.00;4965321;28;20300;-57
2022/08/29 08:49:00;;;;;;;12.33;11.13;;;;;;;21.86;100.00;97399.38;4986215;28;20209;-55
2022/08/29 08:51:32;;;;;;;9.27;8.37;;;;;;;21.94;100.00;97391.66;4981636;28;20204;-55
2022/08/29 08:54:03;;;;;;;9.40;8.53;;;;;;;21.81;100.00;97400.16;4985786;28;20700;-53
2022/08/29 08:56:35;;;;;;;8.77;8.13;;;;;;;21.88;100.00;97398.06;4943860;28;20940;-53
2022/08/29 08:59:07;;;;;;;8.43;7.83;;;;;;;21.73;100.00;97398.69;4985240;28;20230;-50
2022/08/29 09:01:41;;;;;;;9.23;8.40;;;;;;;22.21;100.00;97396.28;4965506;28;21445;-54
2022/08/29 09:04:25;;;;;;;8.73;8.03;;;;;;;22.36;100.00;97395.59;4985700;28;20294;-57
2022/08/29 09:07:08;;;;;;;8.20;7.47;;;;;;;22.39;100.00;97389.69;4985989;28;20581;-57
2022/08/29 09:09:45;;;;;;;8.73;7.23;;;;;;;22.69;100.00;97393.75;4983490;28;20229;-53
2022/08/29 09:12:26;;;;;;;9.40;8.53;;;;;;;22.64;100.00;97392.91;4944135;28;20240;-58
2022/08/29 09:15:02;;;;;;;8.30;7.60;;;;;;;22.70;100.00;97392.66;4985397;28;20971;-54
2022/08/29 09:17:40;;;;;;;8.33;7.57;;;;;;;22.66;100.00;97391.56;4966287;28;20936;-54
2022/08/29 09:20:12;;;;;;;7.90;7.30;;;;;;;22.31;100.00;97390.13;4986710;28;20230;-54
2022/08/29 09:22:43;;;;;;;8.13;7.43;;;;;;;22.60;100.00;97394.50;4969218;28;21398;-58
2022/08/29 09:25:12;;;;;;;7.83;7.13;;;;;;;22.69;100.00;97398.34;4975659;28;20209;-56
2022/08/29 09:27:42;;;;;;;10.20;7.50;;;;;;;22.13;100.00;97388.59;4949583;28;20247;-56
2022/08/29 09:30:14;;;;;;;8.50;7.47;;;;;;;21.92;100.00;97384.88;4961516;28;20843;-60
2022/08/29 09:32:53;;;;;;;9.07;8.17;;;;;;;21.73;100.00;97387.91;4964200;28;20348;-55
2022/08/29 09:35:25;;;;;;;8.30;7.63;;;;;;;21.63;100.00;97391.25;4982364;28;20263;-57
2022/08/29 09:37:59;;;;;;;8.93;8.03;;;;;;;21.38;100.00;97394.44;4982734;28;20212;-55
2022/08/29 09:40:44;;;;;;;9.90;7.67;;;;;;;21.59;100.00;97394.69;4982059;28;20224;-58
2022/08/29 09:43:20;;;;;;;7.80;7.20;;;;;;;21.46;100.00;97364.34;4940763;28;20221;-57
2022/08/29 09:46:04;;;;;;;8.63;7.90;;;;;;;22.26;100.00;97390.09;4977014;28;20312;-54
2022/08/29 09:48:33;;;;;;;8.90;7.97;;;;;;;22.12;100.00;97387.81;4965348;28;20197;-55
2022/08/29 09:51:12;;;;;;;8.53;7.77;;;;;;;21.88;100.00;97394.53;4965518;28;20256;-54
2022/08/29 09:53:41;;;;;;;9.23;8.30;;;;;;;22.32;100.00;97382.88;4985188;28;20926;-55
2022/08/29 09:56:16;;;;;;;9.40;7.70;;;;;;;23.02;100.00;97382.09;4985376;28;20601;-58
2022/08/29 09:58:57;;;;;;;8.60;7.87;;;;;;;23.52;100.00;97379.97;4941565;28;20213;-53
2022/08/29 10:01:25;;;;;;;8.93;8.03;;;;;;;23.45;100.00;97379.41;4967781;28;20907;-58
2022/08/29 10:03:58;;;;;;;8.53;7.93;;;;;;;23.76;100.00;97374.13;4964637;28;20312;-59
2022/08/29 10:06:28;;;;;;;10.17;9.27;;;;;;;23.99;100.00;97373.66;4965608;28;20231;-59
2022/08/29 10:09:00;;;;;;;10.50;8.47;;;;;;;24.21;100.00;97369.94;4984036;28;20210;-57
2022/08/29 10:11:33;;;;;;;9.53;8.77;;;;;;;24.59;100.00;97369.69;4979434;28;20204;-55
2022/08/29 10:14:05;;;;;;;10.57;8.80;;;;;;;24.08;100.00;97373.97;4943334;28;20245;-52
2022/08/29 10:16:46;;;;;;;8.23;7.47;;;;;;;24.37;95.28;97367.25;4917318;28;20259;-54
2022/08/29 10:19:19;;;;;;;7.17;6.67;;;;;;;24.14;97.87;97372.09;4985101;28;20597;-51
2022/08/29 10:21:55;;;;;;;7.30;6.80;;;;;;;24.21;98.10;97369.94;4951906;28;20287;-54
2022/08/29 10:24:53;;;;;;;8.93;8.13;;;;;;;24.61;89.63;97367.53;4947333;28;20660;-55
2022/08/29 10:27:31;;;;;;;6.67;6.10;;;;;;;25.20;82.89;97369.97;4951467;28;22172;-56
2022/08/29 10:30:07;;;;;;;6.70;6.20;;;;;;;25.17;84.93;97360.47;4986197;28;20237;-55
2022/08/29 10:32:55;;;;;;;7.03;6.43;;;;;;;25.89;82.95;97358.59;4945678;28;20208;-51
2022/08/29 10:35:26;;;;;;;7.30;6.60;;;;;;;25.72;78.59;97367.88;4984171;28;20205;-54
2022/08/29 10:37:57;;;;;;;7.00;6.30;;;;;;;25.69;83.91;97360.31;4980974;28;20209;-52
2022/08/29 10:40:29;;;;;;;7.30;6.60;;;;;;;25.50;78.10;97371.78;4978749;28;20225;-54
2022/08/29 10:43:12;;;;;;;6.93;6.40;;;;;;;24.67;84.37;97371.88;4965101;28;20218;-49
2022/08/29 10:45:51;;;;;;;7.00;6.30;;;;;;;24.47;85.55;97361.88;4950756;28;20818;-54
2022/08/29 10:48:21;;;;;;;7.00;6.40;;;;;;;23.97;91.89;97372.31;4937101;28;20270;-54
2022/08/29 10:50:57;;;;;;;6.60;6.00;;;;;;;23.93;93.87;97374.72;4980707;28;20236;-55
2022/08/29 10:53:29;;;;;;;7.03;6.43;;;;;;;23.12;100.00;97371.38;4985172;28;20268;-50
2022/08/29 10:55:58;;;;;;;7.13;6.43;;;;;;;23.21;100.00;97367.09;4985707;28;20212;-53
2022/08/29 10:58:46;;;;;;;8.60;7.87;;;;;;;23.10;100.00;97377.03;4969997;28;20776;-52
2022/08/29 11:01:19;;;;;;;7.70;6.33;;;;;;;22.92;100.00;97374.72;4969671;28;20957;-49
2022/08/29 11:03:52;;;;;;;5.93;5.53;;;;;;;22.79;97.89;97374.13;4944767;28;20259;-55
2022/08/29 11:06:25;;;;;;;5.80;5.30;;;;;;;22.88;93.91;97373.63;4968409;28;20212;-54
2022/08/29 11:08:57;;;;;;;7.27;6.67;;;;;;;22.79;97.34;97366.00;4984408;28;20979;-53
2022/08/29 11:11:25;;;;;;;6.87;6.43;;;;;;;22.95;100.00;97368.84;4975756;28;20292;-55
2022/08/29 11:13:57;;;;;;;6.57;6.10;;;;;;;22.74;100.00;97371.38;4968836;28;20213;-52
2022/08/29 11:16:36;;;;;;;6.60;6.10;;;;;;;22.71;100.00;97377.28;4970623;28;20225;-52
2022/08/29 11:19:11;;;;;;;5.90;5.50;;;;;;;22.65;100.00;97367.53;4944193;28;20229;-53
2022/08/29 11:21:41;;;;;;;7.27;5.67;;;;;;;22.78;100.00;97372.47;4986122;28;20793;-54
2022/08/29 11:24:10;;;;;;;7.27;6.77;;;;;;;23.30;96.67;97372.88;4986084;28;20290;-57
2022/08/29 11:26:47;;;;;;;6.47;5.93;;;;;;;24.05;88.71;97368.28;4987083;28;20975;-57
2022/08/29 11:29:23;;;;;;;6.73;6.13;;;;;;;23.99;86.49;97362.03;4970583;28;21006;-57
2022/08/29 11:31:59;;;;;;;6.87;6.27;;;;;;;23.88;87.59;97366.59;4988798;28;20208;-57
2022/08/29 11:34:33;;;;;;;9.20;6.47;;;;;;;23.69;88.95;97371.66;4940846;28;20221;-56